sensor_id;sensor_type;location;lat;lon;timestamp;pressure;altitude;pressure_sealevel;temperature;humidity
44734;BME280;30462;52.446;-1.930;2023-04-07T00:00:18;100544.1602;;;;
44734;BME280;30462;52.446;-1.930;2023-04-07T00:01:18;100549.0273;;;;
44734;BME280;30462;52.446;-1.930;2023-04-07T00:02:17;100546.9766;;;;
44734;BME280;30462;52.446;-1.930;2023-04-07T00:03:18;100547.6914;;;;
44734;BME280;30462;52.446;-1.930;2023-04-07T00:04:18;100549.7031;;;;
44734;BME280;30462;52.446;-1.930;2023-04-07T00:05:18;100556.918;;;;
44734;BME280;30462;52.446;-1.930;2023-04-07T00:06:18;100558.8398;;;;
44734;BME280;30462;52.446;-1.930;2023-04-07T00:07:18;100551.3516;;;;
44734;BME280;30462;52.446;-1.930;2023-04-07T00:08:18;100554.3008;;;;
44734;BME280;30462;52.446;-1.930;2023-04-07T00:09:18;100556.1719;;;;
44734;BME280;30462;52.446;-1.930;2023-04-07T00:10:18;100557.1016;;;;
44734;BME280;30462;52.446;-1.930;2023-04-07T00:11:18;100558.6836;;;;
44734;BME280;30462;52.446;-1.930;2023-04-07T00:12:18;100557.1016;;;;
44734;BME280;30462;52.446;-1.930;2023-04-07T00:13:18;100553.4297;;;;
44734;BME280;30462;52.446;-1.930;2023-04-07T00:14:17;100556.1211;;;;
44734;BME280;30462;52.446;-1.930;2023-04-07T00:15:18;100555.1172;;;;
44734;BME280;30462;52.446;-1.930;2023-04-07T00:16:18;100553.3281;;;;
44734;BME280;30462;52.446;-1.930;2023-04-07T00:17:18;100554.0273;;;;
44734;BME280;30462;52.446;-1.930;2023-04-07T00:18:18;100556.1914;;;;
44734;BME280;30462;52.446;-1.930;2023-04-07T00:19:18;100559.9453;;;;
44734;BME280;30462;52.446;-1.930;2023-04-07T00:20:18;100561.832;;;;
44734;BME280;30462;52.446;-1.930;2023-04-07T00:21:18;100562.8086;;;;
44734;BME280;30462;52.446;-1.930;2023-04-07T00:22:18;100564.7422;;;;
44734;BME280;30462;52.446;-1.930;2023-04-07T00:23:18;100567.9805;;;;
44734;BME280;30462;52.446;-1.930;2023-04-07T00:24:18;100570.957;;;;
44734;BME280;30462;52.446;-1.930;2023-04-07T00:25:18;100569.582;;;;
44734;BME280;30462;52.446;-1.930;2023-04-07T00:26:18;100572.0078;;;;
44734;BME280;30462;52.446;-1.930;2023-04-07T00:27:18;100570.3281;;;;
44734;BME280;30462;52.446;-1.930;2023-04-07T00:28:18;100569.6914;;;;
44734;BME280;30462;52.446;-1.930;2023-04-07T00:29:17;100570.6289;;;;
44734;BME280;30462;52.446;-1.930;2023-04-07T00:30:18;100570.625;;;;
44734;BME280;30462;52.446;-1.930;2023-04-07T00:31:18;100573.3281;;;;
44734;BME280;30462;52.446;-1.930;2023-04-07T00:32:18;100573.3359;;;;
44734;BME280;30462;52.446;-1.930;2023-04-07T00:33:18;100571.0664;;;;
44734;BME280;30462;52.446;-1.930;2023-04-07T00:34:18;100571.6016;;;;
44734;BME280;30462;52.446;-1.930;2023-04-07T00:35:18;100567.2266;;;;
44734;BME280;30462;52.446;-1.930;2023-04-07T00:36:18;100566.7383;;;;
44734;BME280;30462;52.446;-1.930;2023-04-07T00:37:18;100564.4102;;;;
44734;BME280;30462;52.446;-1.930;2023-04-07T00:38:18;100566.7227;;;;
44734;BME280;30462;52.446;-1.930;2023-04-07T00:39:19;100565.3438;;;;
44734;BME280;30462;52.446;-1.930;2023-04-07T00:40:18;100569.2539;;;;
44734;BME280;30462;52.446;-1.930;2023-04-07T00:41:18;100567.3203;;;;
44734;BME280;30462;52.446;-1.930;2023-04-07T00:42:18;100571.5117;;;;
44734;BME280;30462;52.446;-1.930;2023-04-07T00:43:18;100573.5273;;;;
44734;BME280;30462;52.446;-1.930;2023-04-07T00:44:18;100574.5742;;;;
44734;BME280;30462;52.446;-1.930;2023-04-07T00:45:18;100572.1992;;;;
44734;BME280;30462;52.446;-1.930;2023-04-07T00:46:18;100577.8477;;;;
44734;BME280;30462;52.446;-1.930;2023-04-07T00:47:18;100575.7148;;;;
44734;BME280;30462;52.446;-1.930;2023-04-07T00:48:18;100577.8789;;;;
44734;BME280;30462;52.446;-1.930;2023-04-07T00:49:18;100576.8242;;;;
44734;BME280;30462;52.446;-1.930;2023-04-07T00:50:18;100575.2773;;;;
44734;BME280;30462;52.446;-1.930;2023-04-07T00:51:19;100574.6719;;;;
44734;BME280;30462;52.446;-1.930;2023-04-07T00:52:18;100574.3359;;;;
44734;BME280;30462;52.446;-1.930;2023-04-07T00:53:18;100574.1289;;;;
44734;BME280;30462;52.446;-1.930;2023-04-07T00:54:18;100572.7188;;;;
44734;BME280;30462;52.446;-1.930;2023-04-07T00:55:18;100572.0547;;;;
44734;BME280;30462;52.446;-1.930;2023-04-07T00:56:18;100568.2617;;;;
44734;BME280;30462;52.446;-1.930;2023-04-07T00:57:18;100568.9023;;;;
44734;BME280;30462;52.446;-1.930;2023-04-07T00:58:18;100566.4336;;;;
44734;BME280;30462;52.446;-1.930;2023-04-07T00:59:18;100564.5586;;;;
44734;BME280;30462;52.446;-1.930;2023-04-07T01:00:18;100567.1563;;;;
44734;BME280;30462;52.446;-1.930;2023-04-07T01:01:20;100566.4336;;;;
44734;BME280;30462;52.446;-1.930;2023-04-07T01:02:20;100567.9336;;;;
44734;BME280;30462;52.446;-1.930;2023-04-07T01:03:18;100568.4219;;;;
44734;BME280;30462;52.446;-1.930;2023-04-07T01:04:19;100567.1445;;;;
44734;BME280;30462;52.446;-1.930;2023-04-07T01:05:22;100566.7578;;;;
44734;BME280;30462;52.446;-1.930;2023-04-07T01:06:19;100567.1094;;;;
44734;BME280;30462;52.446;-1.930;2023-04-07T01:07:22;100566.2109;;;;
44734;BME280;30462;52.446;-1.930;2023-04-07T01:08:19;100566.1953;;;;
44734;BME280;30462;52.446;-1.930;2023-04-07T01:09:18;100567.7578;;;;
44734;BME280;30462;52.446;-1.930;2023-04-07T01:10:20;100577.2773;;;;
44734;BME280;30462;52.446;-1.930;2023-04-07T01:11:19;100560.8789;;;;
44734;BME280;30462;52.446;-1.930;2023-04-07T01:12:21;100564.6836;;;;
44734;BME280;30462;52.446;-1.930;2023-04-07T01:14:18;100566.7461;;;;
44734;BME280;30462;52.446;-1.930;2023-04-07T01:15:19;100566.7813;;;;
44734;BME280;30462;52.446;-1.930;2023-04-07T01:16:20;100567.3633;;;;
44734;BME280;30462;52.446;-1.930;2023-04-07T01:17:18;100560.4023;;;;
44734;BME280;30462;52.446;-1.930;2023-04-07T01:18:20;100569.2383;;;;
44734;BME280;30462;52.446;-1.930;2023-04-07T01:20:18;100565.9102;;;;
44734;BME280;30462;52.446;-1.930;2023-04-07T01:21:18;100563.4648;;;;
44734;BME280;30462;52.446;-1.930;2023-04-07T01:22:20;100563.6992;;;;
44734;BME280;30462;52.446;-1.930;2023-04-07T01:23:20;100563.2227;;;;
44734;BME280;30462;52.446;-1.930;2023-04-07T01:26:19;100559.0313;;;;
44734;BME280;30462;52.446;-1.930;2023-04-07T01:27:20;100560.9063;;;;
44734;BME280;30462;52.446;-1.930;2023-04-07T01:30:18;100558.7305;;;;
44734;BME280;30462;52.446;-1.930;2023-04-07T01:31:17;100560.7891;;;;
44734;BME280;30462;52.446;-1.930;2023-04-07T01:32:18;100559.9961;;;;
44734;BME280;30462;52.446;-1.930;2023-04-07T01:33:17;100556.1211;;;;
44734;BME280;30462;52.446;-1.930;2023-04-07T01:34:18;100558.7891;;;;
44734;BME280;30462;52.446;-1.930;2023-04-07T01:35:18;100554.8516;;;;
44734;BME280;30462;52.446;-1.930;2023-04-07T01:36:18;100559.3672;;;;
44734;BME280;30462;52.446;-1.930;2023-04-07T01:37:18;100554.0859;;;;
44734;BME280;30462;52.446;-1.930;2023-04-07T01:38:18;100551.7734;;;;
44734;BME280;30462;52.446;-1.930;2023-04-07T01:39:18;100556.332;;;;
44734;BME280;30462;52.446;-1.930;2023-04-07T01:40:18;100556.7383;;;;
44734;BME280;30462;52.446;-1.930;2023-04-07T01:41:18;100558.5664;;;;
44734;BME280;30462;52.446;-1.930;2023-04-07T01:42:18;100558.2734;;;;
44734;BME280;30462;52.446;-1.930;2023-04-07T01:43:18;100555.9023;;;;
44734;BME280;30462;52.446;-1.930;2023-04-07T01:44:18;100562.7656;;;;
44734;BME280;30462;52.446;-1.930;2023-04-07T01:45:19;100566.0469;;;;
44734;BME280;30462;52.446;-1.930;2023-04-07T01:46:18;100565.3633;;;;
44734;BME280;30462;52.446;-1.930;2023-04-07T01:47:18;100562.6133;;;;
44734;BME280;30462;52.446;-1.930;2023-04-07T01:48:18;100561.9648;;;;
44734;BME280;30462;52.446;-1.930;2023-04-07T01:49:18;100563.2656;;;;
44734;BME280;30462;52.446;-1.930;2023-04-07T01:50:17;100556.8086;;;;
44734;BME280;30462;52.446;-1.930;2023-04-07T01:51:19;100558.9609;;;;
44734;BME280;30462;52.446;-1.930;2023-04-07T01:52:18;100557.332;;;;
44734;BME280;30462;52.446;-1.930;2023-04-07T01:53:18;100556.9375;;;;
44734;BME280;30462;52.446;-1.930;2023-04-07T01:54:18;100559.7617;;;;
44734;BME280;30462;52.446;-1.930;2023-04-07T01:55:18;100561.1016;;;;
44734;BME280;30462;52.446;-1.930;2023-04-07T01:56:18;100562.0313;;;;
44734;BME280;30462;52.446;-1.930;2023-04-07T01:57:18;100563.6602;;;;
44734;BME280;30462;52.446;-1.930;2023-04-07T01:58:18;100565.2891;;;;
44734;BME280;30462;52.446;-1.930;2023-04-07T01:59:18;100568.0391;;;;
44734;BME280;30462;52.446;-1.930;2023-04-07T02:00:18;100569.6875;;;;
44734;BME280;30462;52.446;-1.930;2023-04-07T02:01:17;100568.582;;;;
44734;BME280;30462;52.446;-1.930;2023-04-07T02:02:18;100568.582;;;;
44734;BME280;30462;52.446;-1.930;2023-04-07T02:03:19;100570.4922;;;;
44734;BME280;30462;52.446;-1.930;2023-04-07T02:04:19;100566.8398;;;;
44734;BME280;30462;52.446;-1.930;2023-04-07T02:05:19;100568.4531;;;;
44734;BME280;30462;52.446;-1.930;2023-04-07T02:06:18;100568.2148;;;;
44734;BME280;30462;52.446;-1.930;2023-04-07T02:07:19;100566.1602;;;;
44734;BME280;30462;52.446;-1.930;2023-04-07T02:08:18;100563.9141;;;;
44734;BME280;30462;52.446;-1.930;2023-04-07T02:09:18;100563.9141;;;;
44734;BME280;30462;52.446;-1.930;2023-04-07T02:10:19;100566.3359;;;;
44734;BME280;30462;52.446;-1.930;2023-04-07T02:11:19;100567.1484;;;;
44734;BME280;30462;52.446;-1.930;2023-04-07T02:12:18;100562.7813;;;;
44734;BME280;30462;52.446;-1.930;2023-04-07T02:13:18;100568.6328;;;;
44734;BME280;30462;52.446;-1.930;2023-04-07T02:14:18;100570.0508;;;;
44734;BME280;30462;52.446;-1.930;2023-04-07T02:15:18;100565.4922;;;;
44734;BME280;30462;52.446;-1.930;2023-04-07T02:16:18;100568.0703;;;;
44734;BME280;30462;52.446;-1.930;2023-04-07T02:17:18;100565.6836;;;;
44734;BME280;30462;52.446;-1.930;2023-04-07T02:18:18;100569.0586;;;;
44734;BME280;30462;52.446;-1.930;2023-04-07T02:19:18;100565.2109;;;;
44734;BME280;30462;52.446;-1.930;2023-04-07T02:20:18;100563.9648;;;;
44734;BME280;30462;52.446;-1.930;2023-04-07T02:21:18;100568.5039;;;;
44734;BME280;30462;52.446;-1.930;2023-04-07T02:22:18;100562.25;;;;
44734;BME280;30462;52.446;-1.930;2023-04-07T02:23:18;100566.207;;;;
44734;BME280;30462;52.446;-1.930;2023-04-07T02:24:18;100561.7852;;;;
44734;BME280;30462;52.446;-1.930;2023-04-07T02:25:20;100564.6953;;;;
44734;BME280;30462;52.446;-1.930;2023-04-07T02:26:17;100564.0742;;;;
44734;BME280;30462;52.446;-1.930;2023-04-07T02:27:18;100562.4063;;;;
44734;BME280;30462;52.446;-1.930;2023-04-07T02:28:18;100566.4297;;;;
44734;BME280;30462;52.446;-1.930;2023-04-07T02:29:18;100566.3125;;;;
44734;BME280;30462;52.446;-1.930;2023-04-07T02:30:18;100567.4297;;;;
44734;BME280;30462;52.446;-1.930;2023-04-07T02:31:17;100562.0156;;;;
44734;BME280;30462;52.446;-1.930;2023-04-07T02:32:18;100562.5781;;;;
44734;BME280;30462;52.446;-1.930;2023-04-07T02:33:18;100565.4805;;;;
44734;BME280;30462;52.446;-1.930;2023-04-07T02:34:18;100567.1328;;;;
44734;BME280;30462;52.446;-1.930;2023-04-07T02:35:18;100570.9688;;;;
44734;BME280;30462;52.446;-1.930;2023-04-07T02:36:18;100571.8164;;;;
44734;BME280;30462;52.446;-1.930;2023-04-07T02:37:18;100574.793;;;;
44734;BME280;30462;52.446;-1.930;2023-04-07T02:38:18;100573.0742;;;;
44734;BME280;30462;52.446;-1.930;2023-04-07T02:39:17;100570.5547;;;;
44734;BME280;30462;52.446;-1.930;2023-04-07T02:40:18;100573.4375;;;;
44734;BME280;30462;52.446;-1.930;2023-04-07T02:41:18;100574.1367;;;;
44734;BME280;30462;52.446;-1.930;2023-04-07T02:42:18;100575.0547;;;;
44734;BME280;30462;52.446;-1.930;2023-04-07T02:43:18;100570.3828;;;;
44734;BME280;30462;52.446;-1.930;2023-04-07T02:44:17;100576.7031;;;;
44734;BME280;30462;52.446;-1.930;2023-04-07T02:45:18;100575.4453;;;;
44734;BME280;30462;52.446;-1.930;2023-04-07T02:46:18;100581.7891;;;;
44734;BME280;30462;52.446;-1.930;2023-04-07T02:47:18;100583.3008;;;;
44734;BME280;30462;52.446;-1.930;2023-04-07T02:48:18;100583.3711;;;;
44734;BME280;30462;52.446;-1.930;2023-04-07T02:49:18;100587.2656;;;;
44734;BME280;30462;52.446;-1.930;2023-04-07T02:50:18;100586.3008;;;;
44734;BME280;30462;52.446;-1.930;2023-04-07T02:51:18;100591.0742;;;;
44734;BME280;30462;52.446;-1.930;2023-04-07T02:52:17;100584.1914;;;;
44734;BME280;30462;52.446;-1.930;2023-04-07T02:53:18;100586.7969;;;;
44734;BME280;30462;52.446;-1.930;2023-04-07T02:54:18;100584.8828;;;;
44734;BME280;30462;52.446;-1.930;2023-04-07T02:55:18;100587.2188;;;;
44734;BME280;30462;52.446;-1.930;2023-04-07T02:56:18;100584.3086;;;;
44734;BME280;30462;52.446;-1.930;2023-04-07T02:57:18;100585.7773;;;;
44734;BME280;30462;52.446;-1.930;2023-04-07T02:58:18;100585.0586;;;;
44734;BME280;30462;52.446;-1.930;2023-04-07T02:59:17;100588.6172;;;;
44734;BME280;30462;52.446;-1.930;2023-04-07T03:00:18;100588.1055;;;;
44734;BME280;30462;52.446;-1.930;2023-04-07T03:01:18;100588.457;;;;
44734;BME280;30462;52.446;-1.930;2023-04-07T03:02:18;100590.4336;;;;
44734;BME280;30462;52.446;-1.930;2023-04-07T03:03:18;100590.125;;;;
44734;BME280;30462;52.446;-1.930;2023-04-07T03:04:18;100592.1211;;;;
44734;BME280;30462;52.446;-1.930;2023-04-07T03:05:18;100587.0313;;;;
44734;BME280;30462;52.446;-1.930;2023-04-07T03:06:18;100587.4063;;;;
44734;BME280;30462;52.446;-1.930;2023-04-07T03:07:18;100588.6719;;;;
44734;BME280;30462;52.446;-1.930;2023-04-07T03:08:18;100589.2461;;;;
44734;BME280;30462;52.446;-1.930;2023-04-07T03:09:18;100589.5703;;;;
44734;BME280;30462;52.446;-1.930;2023-04-07T03:10:18;100586.707;;;;
44734;BME280;30462;52.446;-1.930;2023-04-07T03:11:18;100588.7188;;;;
44734;BME280;30462;52.446;-1.930;2023-04-07T03:12:18;100583.0313;;;;
44734;BME280;30462;52.446;-1.930;2023-04-07T03:13:19;100578.3203;;;;
44734;BME280;30462;52.446;-1.930;2023-04-07T03:14:18;100576.082;;;;
44734;BME280;30462;52.446;-1.930;2023-04-07T03:15:18;100577.293;;;;
44734;BME280;30462;52.446;-1.930;2023-04-07T03:16:18;100575.5352;;;;
44734;BME280;30462;52.446;-1.930;2023-04-07T03:17:18;100573.9727;;;;
44734;BME280;30462;52.446;-1.930;2023-04-07T03:18:18;100574.3242;;;;
44734;BME280;30462;52.446;-1.930;2023-04-07T03:19:18;100574.75;;;;
44734;BME280;30462;52.446;-1.930;2023-04-07T03:20:17;100573.2773;;;;
44734;BME280;30462;52.446;-1.930;2023-04-07T03:21:18;100571.9727;;;;
44734;BME280;30462;52.446;-1.930;2023-04-07T03:22:18;100571.4922;;;;
44734;BME280;30462;52.446;-1.930;2023-04-07T03:23:18;100571.0039;;;;
44734;BME280;30462;52.446;-1.930;2023-04-07T03:24:17;100567.1875;;;;
44734;BME280;30462;52.446;-1.930;2023-04-07T03:25:17;100566.4141;;;;
44734;BME280;30462;52.446;-1.930;2023-04-07T03:26:18;100567.7031;;;;
44734;BME280;30462;52.446;-1.930;2023-04-07T03:27:18;100565.0039;;;;
44734;BME280;30462;52.446;-1.930;2023-04-07T03:28:18;100563.3359;;;;
44734;BME280;30462;52.446;-1.930;2023-04-07T03:29:18;100571.4883;;;;
44734;BME280;30462;52.446;-1.930;2023-04-07T03:30:18;100565.2617;;;;
44734;BME280;30462;52.446;-1.930;2023-04-07T03:31:18;100565.8438;;;;
44734;BME280;30462;52.446;-1.930;2023-04-07T03:32:18;100565.2578;;;;
44734;BME280;30462;52.446;-1.930;2023-04-07T03:33:18;100569.0078;;;;
44734;BME280;30462;52.446;-1.930;2023-04-07T03:34:18;100567.4727;;;;
44734;BME280;30462;52.446;-1.930;2023-04-07T03:35:18;100566.9063;;;;
44734;BME280;30462;52.446;-1.930;2023-04-07T03:36:18;100567.2188;;;;
44734;BME280;30462;52.446;-1.930;2023-04-07T03:37:18;100570.543;;;;
44734;BME280;30462;52.446;-1.930;2023-04-07T03:38:18;100572.6133;;;;
44734;BME280;30462;52.446;-1.930;2023-04-07T03:39:18;100573.3086;;;;
44734;BME280;30462;52.446;-1.930;2023-04-07T03:40:18;100567.4961;;;;
44734;BME280;30462;52.446;-1.930;2023-04-07T03:41:18;100568.8164;;;;
44734;BME280;30462;52.446;-1.930;2023-04-07T03:42:18;100571.1875;;;;
44734;BME280;30462;52.446;-1.930;2023-04-07T03:43:18;100573.9492;;;;
44734;BME280;30462;52.446;-1.930;2023-04-07T03:44:18;100572.2656;;;;
44734;BME280;30462;52.446;-1.930;2023-04-07T03:45:18;100572.1289;;;;
44734;BME280;30462;52.446;-1.930;2023-04-07T03:46:19;100572.6172;;;;
44734;BME280;30462;52.446;-1.930;2023-04-07T03:47:18;100569.3672;;;;
44734;BME280;30462;52.446;-1.930;2023-04-07T03:48:17;100572.1797;;;;
44734;BME280;30462;52.446;-1.930;2023-04-07T03:49:18;100567.2734;;;;
44734;BME280;30462;52.446;-1.930;2023-04-07T03:50:18;100575.1953;;;;
44734;BME280;30462;52.446;-1.930;2023-04-07T03:51:18;100575.082;;;;
44734;BME280;30462;52.446;-1.930;2023-04-07T03:52:18;100577.3164;;;;
44734;BME280;30462;52.446;-1.930;2023-04-07T03:53:18;100579.4063;;;;
44734;BME280;30462;52.446;-1.930;2023-04-07T03:54:18;100580.1563;;;;
44734;BME280;30462;52.446;-1.930;2023-04-07T03:55:18;100582.5469;;;;
44734;BME280;30462;52.446;-1.930;2023-04-07T03:56:18;100584.0078;;;;
44734;BME280;30462;52.446;-1.930;2023-04-07T03:57:18;100582.6094;;;;
44734;BME280;30462;52.446;-1.930;2023-04-07T03:58:18;100587.0078;;;;
44734;BME280;30462;52.446;-1.930;2023-04-07T03:59:18;100586.7734;;;;
44734;BME280;30462;52.446;-1.930;2023-04-07T04:00:18;100583.6523;;;;
44734;BME280;30462;52.446;-1.930;2023-04-07T04:01:18;100582.918;;;;
44734;BME280;30462;52.446;-1.930;2023-04-07T04:02:18;100583.6875;;;;
44734;BME280;30462;52.446;-1.930;2023-04-07T04:03:18;100587.2617;;;;
44734;BME280;30462;52.446;-1.930;2023-04-07T04:04:18;100586.4648;;;;
44734;BME280;30462;52.446;-1.930;2023-04-07T04:05:18;100587.3828;;;;
44734;BME280;30462;52.446;-1.930;2023-04-07T04:06:18;100588.1133;;;;
44734;BME280;30462;52.446;-1.930;2023-04-07T04:07:18;100590.8555;;;;
44734;BME280;30462;52.446;-1.930;2023-04-07T04:08:18;100588.6484;;;;
44734;BME280;30462;52.446;-1.930;2023-04-07T04:09:18;100589.7109;;;;
44734;BME280;30462;52.446;-1.930;2023-04-07T04:10:18;100589.293;;;;
44734;BME280;30462;52.446;-1.930;2023-04-07T04:11:18;100590.5352;;;;
44734;BME280;30462;52.446;-1.930;2023-04-07T04:12:18;100592.7109;;;;
44734;BME280;30462;52.446;-1.930;2023-04-07T04:13:18;100595.0625;;;;
44734;BME280;30462;52.446;-1.930;2023-04-07T04:14:18;100598.9375;;;;
44734;BME280;30462;52.446;-1.930;2023-04-07T04:15:17;100597.043;;;;
44734;BME280;30462;52.446;-1.930;2023-04-07T04:16:18;100599.8984;;;;
44734;BME280;30462;52.446;-1.930;2023-04-07T04:17:18;100599.5;;;;
44734;BME280;30462;52.446;-1.930;2023-04-07T04:18:18;100598.7617;;;;
44734;BME280;30462;52.446;-1.930;2023-04-07T04:19:18;100599.8633;;;;
44734;BME280;30462;52.446;-1.930;2023-04-07T04:20:19;100599.4297;;;;
44734;BME280;30462;52.446;-1.930;2023-04-07T04:21:18;100600.0781;;;;
44734;BME280;30462;52.446;-1.930;2023-04-07T04:22:18;100598.8203;;;;
44734;BME280;30462;52.446;-1.930;2023-04-07T04:23:18;100599.6094;;;;
44734;BME280;30462;52.446;-1.930;2023-04-07T04:24:18;100599.5391;;;;
44734;BME280;30462;52.446;-1.930;2023-04-07T04:25:18;100601.6055;;;;
44734;BME280;30462;52.446;-1.930;2023-04-07T04:26:17;100602.5;;;;
44734;BME280;30462;52.446;-1.930;2023-04-07T04:27:17;100602.2383;;;;
44734;BME280;30462;52.446;-1.930;2023-04-07T04:28:18;100601.5898;;;;
44734;BME280;30462;52.446;-1.930;2023-04-07T04:29:18;100601.4648;;;;
44734;BME280;30462;52.446;-1.930;2023-04-07T04:30:18;100602.2852;;;;
44734;BME280;30462;52.446;-1.930;2023-04-07T04:31:18;100606.3086;;;;
44734;BME280;30462;52.446;-1.930;2023-04-07T04:32:18;100602.0039;;;;
44734;BME280;30462;52.446;-1.930;2023-04-07T04:33:18;100607.1367;;;;
44734;BME280;30462;52.446;-1.930;2023-04-07T04:34:18;100607.3711;;;;
44734;BME280;30462;52.446;-1.930;2023-04-07T04:35:18;100606.6953;;;;
44734;BME280;30462;52.446;-1.930;2023-04-07T04:36:18;100603.0547;;;;
44734;BME280;30462;52.446;-1.930;2023-04-07T04:37:18;100606.4805;;;;
44734;BME280;30462;52.446;-1.930;2023-04-07T04:38:18;100606.25;;;;
44734;BME280;30462;52.446;-1.930;2023-04-07T04:39:18;100607.3555;;;;
44734;BME280;30462;52.446;-1.930;2023-04-07T04:40:18;100606.2344;;;;
44734;BME280;30462;52.446;-1.930;2023-04-07T04:41:17;100607.9727;;;;
44734;BME280;30462;52.446;-1.930;2023-04-07T04:42:18;100605.2461;;;;
44734;BME280;30462;52.446;-1.930;2023-04-07T04:43:18;100606.8359;;;;
44734;BME280;30462;52.446;-1.930;2023-04-07T04:44:18;100604.6758;;;;
44734;BME280;30462;52.446;-1.930;2023-04-07T04:45:18;100603.8359;;;;
44734;BME280;30462;52.446;-1.930;2023-04-07T04:46:18;100609.6016;;;;
44734;BME280;30462;52.446;-1.930;2023-04-07T04:47:18;100614.5664;;;;
44734;BME280;30462;52.446;-1.930;2023-04-07T04:48:18;100613.1055;;;;
44734;BME280;30462;52.446;-1.930;2023-04-07T04:49:18;100614.3633;;;;
44734;BME280;30462;52.446;-1.930;2023-04-07T04:50:18;100615.1992;;;;
44734;BME280;30462;52.446;-1.930;2023-04-07T04:51:18;100617.7227;;;;
44734;BME280;30462;52.446;-1.930;2023-04-07T04:52:18;100614.6328;;;;
44734;BME280;30462;52.446;-1.930;2023-04-07T04:53:18;100616;;;;
44734;BME280;30462;52.446;-1.930;2023-04-07T04:54:18;100618.6367;;;;
44734;BME280;30462;52.446;-1.930;2023-04-07T04:55:18;100619.1133;;;;
44734;BME280;30462;52.446;-1.930;2023-04-07T04:56:18;100621.582;;;;
44734;BME280;30462;52.446;-1.930;2023-04-07T04:57:18;100624.1953;;;;
44734;BME280;30462;52.446;-1.930;2023-04-07T04:58:18;100624.0469;;;;
44734;BME280;30462;52.446;-1.930;2023-04-07T04:59:18;100626.3516;;;;
44734;BME280;30462;52.446;-1.930;2023-04-07T05:00:19;100624.3477;;;;
44734;BME280;30462;52.446;-1.930;2023-04-07T05:01:18;100621.8594;;;;
44734;BME280;30462;52.446;-1.930;2023-04-07T05:02:18;100626.7148;;;;
44734;BME280;30462;52.446;-1.930;2023-04-07T05:03:17;100625.457;;;;
44734;BME280;30462;52.446;-1.930;2023-04-07T05:04:18;100624.3359;;;;
44734;BME280;30462;52.446;-1.930;2023-04-07T05:05:18;100623.7578;;;;
44734;BME280;30462;52.446;-1.930;2023-04-07T05:06:18;100620.6719;;;;
44734;BME280;30462;52.446;-1.930;2023-04-07T05:07:18;100621.1602;;;;
44734;BME280;30462;52.446;-1.930;2023-04-07T05:08:18;100624.9453;;;;
44734;BME280;30462;52.446;-1.930;2023-04-07T05:09:18;100625.9922;;;;
44734;BME280;30462;52.446;-1.930;2023-04-07T05:10:18;100622.0156;;;;
44734;BME280;30462;52.446;-1.930;2023-04-07T05:11:18;100623.4609;;;;
44734;BME280;30462;52.446;-1.930;2023-04-07T05:12:18;100623.4258;;;;
44734;BME280;30462;52.446;-1.930;2023-04-07T05:13:18;100629.9766;;;;
44734;BME280;30462;52.446;-1.930;2023-04-07T05:14:18;100623.8398;;;;
44734;BME280;30462;52.446;-1.930;2023-04-07T05:15:18;100624.4453;;;;
44734;BME280;30462;52.446;-1.930;2023-04-07T05:16:18;100626.2344;;;;
44734;BME280;30462;52.446;-1.930;2023-04-07T05:17:18;100626.7656;;;;
44734;BME280;30462;52.446;-1.930;2023-04-07T05:18:18;100627.9609;;;;
44734;BME280;30462;52.446;-1.930;2023-04-07T05:19:18;100631.1055;;;;
44734;BME280;30462;52.446;-1.930;2023-04-07T05:20:18;100629.0547;;;;
44734;BME280;30462;52.446;-1.930;2023-04-07T05:21:18;100632.707;;;;
44734;BME280;30462;52.446;-1.930;2023-04-07T05:22:18;100630.6094;;;;
44734;BME280;30462;52.446;-1.930;2023-04-07T05:23:18;100632.6055;;;;
44734;BME280;30462;52.446;-1.930;2023-04-07T05:24:18;100632.9922;;;;
44734;BME280;30462;52.446;-1.930;2023-04-07T05:25:18;100634.0234;;;;
44734;BME280;30462;52.446;-1.930;2023-04-07T05:26:18;100636.0352;;;;
44734;BME280;30462;52.446;-1.930;2023-04-07T05:27:18;100639.3906;;;;
44734;BME280;30462;52.446;-1.930;2023-04-07T05:28:18;100640.0117;;;;
44734;BME280;30462;52.446;-1.930;2023-04-07T05:29:17;100643.7227;;;;
44734;BME280;30462;52.446;-1.930;2023-04-07T05:30:18;100642.957;;;;
44734;BME280;30462;52.446;-1.930;2023-04-07T05:31:18;100638.7422;;;;
44734;BME280;30462;52.446;-1.930;2023-04-07T05:32:18;100643.9453;;;;
44734;BME280;30462;52.446;-1.930;2023-04-07T05:33:18;100643.7227;;;;
44734;BME280;30462;52.446;-1.930;2023-04-07T05:34:18;100650.4922;;;;
44734;BME280;30462;52.446;-1.930;2023-04-07T05:35:18;100650.0938;;;;
44734;BME280;30462;52.446;-1.930;2023-04-07T05:36:18;100649.1016;;;;
44734;BME280;30462;52.446;-1.930;2023-04-07T05:37:18;100648.5859;;;;
44734;BME280;30462;52.446;-1.930;2023-04-07T05:38:18;100648.0391;;;;
44734;BME280;30462;52.446;-1.930;2023-04-07T05:39:18;100651.0547;;;;
44734;BME280;30462;52.446;-1.930;2023-04-07T05:40:18;100653.4844;;;;
44734;BME280;30462;52.446;-1.930;2023-04-07T05:41:18;100651.8828;;;;
44734;BME280;30462;52.446;-1.930;2023-04-07T05:42:18;100653.168;;;;
44734;BME280;30462;52.446;-1.930;2023-04-07T05:43:18;100655.0039;;;;
44734;BME280;30462;52.446;-1.930;2023-04-07T05:44:18;100654.0742;;;;
44734;BME280;30462;52.446;-1.930;2023-04-07T05:45:18;100657.8867;;;;
44734;BME280;30462;52.446;-1.930;2023-04-07T05:46:18;100656.4219;;;;
44734;BME280;30462;52.446;-1.930;2023-04-07T05:47:18;100662.2031;;;;
44734;BME280;30462;52.446;-1.930;2023-04-07T05:48:18;100659.7656;;;;
44734;BME280;30462;52.446;-1.930;2023-04-07T05:49:18;100660.0859;;;;
44734;BME280;30462;52.446;-1.930;2023-04-07T05:50:18;100663.875;;;;
44734;BME280;30462;52.446;-1.930;2023-04-07T05:51:18;100664.0117;;;;